sensor_id;sensor_type;location;lat;lon;timestamp;pressure;altitude;pressure_sealevel;temperature;humidity
59873;BME280;50750;51.636;4.948;2022-09-09T00:04:03;100865.20;;;24.23;51.76
59873;BME280;50750;51.636;4.948;2022-09-09T00:06:35;100868.95;;;24.23;51.75
59873;BME280;50750;51.636;4.948;2022-09-09T00:09:10;100865.78;;;24.23;51.68
59873;BME280;50750;51.636;4.948;2022-09-09T00:11:59;100865.80;;;24.22;51.72
59873;BME280;50750;51.636;4.948;2022-09-09T00:14:51;100860.67;;;24.22;51.69
59873;BME280;50750;51.636;4.948;2022-09-09T00:17:46;100860.53;;;24.21;51.69
59873;BME280;50750;51.636;4.948;2022-09-09T00:20:23;100860.20;;;24.21;51.73
59873;BME280;50750;51.636;4.948;2022-09-09T00:23:28;100857.59;;;24.20;51.70
59873;BME280;50750;51.636;4.948;2022-09-09T00:28:31;100845.15;;;24.19;51.60
59873;BME280;50750;51.636;4.948;2022-09-09T00:31:07;100842.30;;;24.19;51.74
59873;BME280;50750;51.636;4.948;2022-09-09T00:33:37;100838.91;;;24.19;51.64
59873;BME280;50750;51.636;4.948;2022-09-09T00:36:12;100840.19;;;24.19;51.74
59873;BME280;50750;51.636;4.948;2022-09-09T00:38:43;100840.95;;;24.18;51.69
59873;BME280;50750;51.636;4.948;2022-09-09T00:41:41;100834.50;;;24.19;51.75
59873;BME280;50750;51.636;4.948;2022-09-09T00:44:33;100828.64;;;24.18;51.57
59873;BME280;50750;51.636;4.948;2022-09-09T00:55:16;100822.40;;;24.16;51.59
59873;BME280;50750;51.636;4.948;2022-09-09T00:57:46;100826.18;;;24.15;51.78
59873;BME280;50750;51.636;4.948;2022-09-09T01:00:28;100822.13;;;24.15;51.66
59873;BME280;50750;51.636;4.948;2022-09-09T01:17:10;100824.52;;;24.12;51.63
59873;BME280;50750;51.636;4.948;2022-09-09T01:20:03;100819.35;;;24.12;51.62
59873;BME280;50750;51.636;4.948;2022-09-09T01:28:15;100812.30;;;24.11;51.69
59873;BME280;50750;51.636;4.948;2022-09-09T01:30:42;100811.44;;;24.10;51.58
59873;BME280;50750;51.636;4.948;2022-09-09T01:33:16;100806.98;;;24.10;51.63
59873;BME280;50750;51.636;4.948;2022-09-09T01:35:49;100809.17;;;24.10;51.72
59873;BME280;50750;51.636;4.948;2022-09-09T01:38:21;100807.42;;;24.09;51.57
59873;BME280;50750;51.636;4.948;2022-09-09T01:40:51;100803.16;;;24.09;51.67
59873;BME280;50750;51.636;4.948;2022-09-09T01:43:20;100806.21;;;24.09;51.49
59873;BME280;50750;51.636;4.948;2022-09-09T01:45:49;100801.66;;;24.07;51.59
59873;BME280;50750;51.636;4.948;2022-09-09T01:48:20;100801.66;;;24.08;51.58
59873;BME280;50750;51.636;4.948;2022-09-09T01:50:47;100799.02;;;24.07;51.70
59873;BME280;50750;51.636;4.948;2022-09-09T01:53:15;100796.20;;;24.07;51.45
59873;BME280;50750;51.636;4.948;2022-09-09T02:04:47;100789.58;;;24.05;51.58
59873;BME280;50750;51.636;4.948;2022-09-09T02:07:24;100786.23;;;24.04;51.75
59873;BME280;50750;51.636;4.948;2022-09-09T02:10:03;100782.83;;;24.04;51.69
59873;BME280;50750;51.636;4.948;2022-09-09T02:12:32;100778.94;;;24.03;51.45
59873;BME280;50750;51.636;4.948;2022-09-09T02:15:05;100776.98;;;24.03;51.61
59873;BME280;50750;51.636;4.948;2022-09-09T02:17:36;100774.55;;;24.02;51.65
59873;BME280;50750;51.636;4.948;2022-09-09T02:20:08;100778.68;;;24.02;51.54
59873;BME280;50750;51.636;4.948;2022-09-09T02:22:38;100776.73;;;24.02;51.54
59873;BME280;50750;51.636;4.948;2022-09-09T02:25:06;100778.54;;;24.02;51.62
59873;BME280;50750;51.636;4.948;2022-09-09T02:27:34;100776.98;;;24.01;51.64
59873;BME280;50750;51.636;4.948;2022-09-09T02:30:02;100778.87;;;24.00;51.61
59873;BME280;50750;51.636;4.948;2022-09-09T02:32:32;100779.06;;;24.00;51.62
59873;BME280;50750;51.636;4.948;2022-09-09T02:35:20;100781.80;;;23.99;51.60
59873;BME280;50750;51.636;4.948;2022-09-09T02:37:48;100780.55;;;23.99;51.64
59873;BME280;50750;51.636;4.948;2022-09-09T02:40:16;100777.55;;;23.98;51.60
59873;BME280;50750;51.636;4.948;2022-09-09T02:42:47;100779.35;;;23.98;51.48
59873;BME280;50750;51.636;4.948;2022-09-09T02:45:18;100775.67;;;23.98;51.65
59873;BME280;50750;51.636;4.948;2022-09-09T02:47:56;100774.96;;;23.98;51.51
59873;BME280;50750;51.636;4.948;2022-09-09T02:50:37;100771.07;;;23.97;51.58
59873;BME280;50750;51.636;4.948;2022-09-09T02:53:21;100773.92;;;23.97;51.61
59873;BME280;50750;51.636;4.948;2022-09-09T02:55:58;100773.05;;;23.97;51.60
59873;BME280;50750;51.636;4.948;2022-09-09T02:58:26;100771.85;;;23.96;51.61
59873;BME280;50750;51.636;4.948;2022-09-09T03:00:57;100773.52;;;23.96;51.59
59873;BME280;50750;51.636;4.948;2022-09-09T03:03:24;100773.00;;;23.96;51.63
59873;BME280;50750;51.636;4.948;2022-09-09T03:05:51;100773.40;;;23.95;51.56
59873;BME280;50750;51.636;4.948;2022-09-09T03:08:17;100770.71;;;23.95;51.53
59873;BME280;50750;51.636;4.948;2022-09-09T03:10:44;100773.23;;;23.95;51.54
59873;BME280;50750;51.636;4.948;2022-09-09T03:13:11;100775.24;;;23.95;51.58
59873;BME280;50750;51.636;4.948;2022-09-09T03:15:39;100774.92;;;23.94;51.49
59873;BME280;50750;51.636;4.948;2022-09-09T03:18:05;100771.54;;;23.94;51.65
59873;BME280;50750;51.636;4.948;2022-09-09T03:20:32;100770.46;;;23.94;51.52
59873;BME280;50750;51.636;4.948;2022-09-09T03:22:59;100767.64;;;23.94;51.54
59873;BME280;50750;51.636;4.948;2022-09-09T03:25:27;100770.90;;;23.93;51.46
59873;BME280;50750;51.636;4.948;2022-09-09T03:27:55;100772.54;;;23.93;51.62
59873;BME280;50750;51.636;4.948;2022-09-09T03:30:23;100768.84;;;23.92;51.56
59873;BME280;50750;51.636;4.948;2022-09-09T03:32:49;100764.75;;;23.92;51.52
59873;BME280;50750;51.636;4.948;2022-09-09T03:35:17;100760.48;;;23.92;51.42
59873;BME280;50750;51.636;4.948;2022-09-09T03:37:43;100759.29;;;23.91;51.45
59873;BME280;50750;51.636;4.948;2022-09-09T03:40:10;100757.20;;;23.90;51.58
59873;BME280;50750;51.636;4.948;2022-09-09T03:42:38;100755.64;;;23.90;51.52
59873;BME280;50750;51.636;4.948;2022-09-09T03:45:08;100756.74;;;23.89;51.53
59873;BME280;50750;51.636;4.948;2022-09-09T03:47:35;100759.99;;;23.89;51.59
59873;BME280;50750;51.636;4.948;2022-09-09T03:50:03;100759.84;;;23.89;51.44
59873;BME280;50750;51.636;4.948;2022-09-09T03:52:30;100760.60;;;23.88;51.49
59873;BME280;50750;51.636;4.948;2022-09-09T03:54:56;100759.18;;;23.88;51.41
59873;BME280;50750;51.636;4.948;2022-09-09T03:57:23;100758.16;;;23.87;51.47
59873;BME280;50750;51.636;4.948;2022-09-09T03:59:50;100761.63;;;23.87;51.46
59873;BME280;50750;51.636;4.948;2022-09-09T04:02:16;100760.92;;;23.87;51.59
59873;BME280;50750;51.636;4.948;2022-09-09T04:04:43;100760.09;;;23.86;51.51
59873;BME280;50750;51.636;4.948;2022-09-09T04:07:09;100755.14;;;23.85;51.45
59873;BME280;50750;51.636;4.948;2022-09-09T04:09:38;100755.47;;;23.86;51.44
59873;BME280;50750;51.636;4.948;2022-09-09T04:12:04;100755.50;;;23.85;51.42
59873;BME280;50750;51.636;4.948;2022-09-09T04:14:32;100753.45;;;23.84;51.56
59873;BME280;50750;51.636;4.948;2022-09-09T04:16:59;100751.36;;;23.84;51.48
59873;BME280;50750;51.636;4.948;2022-09-09T04:19:26;100752.99;;;23.83;51.60
59873;BME280;50750;51.636;4.948;2022-09-09T04:21:53;100754.10;;;23.83;51.55
59873;BME280;50750;51.636;4.948;2022-09-09T04:24:19;100749.84;;;23.82;51.63
59873;BME280;50750;51.636;4.948;2022-09-09T04:26:46;100751.14;;;23.82;51.69
59873;BME280;50750;51.636;4.948;2022-09-09T04:29:13;100753.09;;;23.82;51.51
59873;BME280;50750;51.636;4.948;2022-09-09T04:31:40;100750.14;;;23.81;51.61
59873;BME280;50750;51.636;4.948;2022-09-09T04:34:09;100745.00;;;23.80;51.51
59873;BME280;50750;51.636;4.948;2022-09-09T04:36:35;100746.46;;;23.80;51.58
59873;BME280;50750;51.636;4.948;2022-09-09T04:39:02;100743.60;;;23.80;51.57
59873;BME280;50750;51.636;4.948;2022-09-09T04:41:29;100738.29;;;23.79;51.52
59873;BME280;50750;51.636;4.948;2022-09-09T04:43:57;100738.12;;;23.79;51.69
59873;BME280;50750;51.636;4.948;2022-09-09T04:46:24;100735.84;;;23.79;51.51
59873;BME280;50750;51.636;4.948;2022-09-09T04:48:51;100728.02;;;23.79;51.60
59873;BME280;50750;51.636;4.948;2022-09-09T04:51:19;100725.54;;;23.78;51.49
59873;BME280;50750;51.636;4.948;2022-09-09T04:53:45;100722.02;;;23.78;51.59
59873;BME280;50750;51.636;4.948;2022-09-09T04:56:15;100722.73;;;23.77;51.64
59873;BME280;50750;51.636;4.948;2022-09-09T04:58:42;100720.47;;;23.77;51.54
59873;BME280;50750;51.636;4.948;2022-09-09T05:01:15;100716.34;;;23.77;51.50
59873;BME280;50750;51.636;4.948;2022-09-09T05:03:44;100713.18;;;23.76;51.68
59873;BME280;50750;51.636;4.948;2022-09-09T05:06:16;100715.55;;;23.76;51.66
59873;BME280;50750;51.636;4.948;2022-09-09T05:08:43;100714.89;;;23.75;51.59
59873;BME280;50750;51.636;4.948;2022-09-09T05:11:26;100721.34;;;23.75;51.48
59873;BME280;50750;51.636;4.948;2022-09-09T05:13:54;100720.31;;;23.75;51.43
59873;BME280;50750;51.636;4.948;2022-09-09T05:16:21;100716.08;;;23.74;51.56
59873;BME280;50750;51.636;4.948;2022-09-09T05:18:49;100719.16;;;23.73;51.55
59873;BME280;50750;51.636;4.948;2022-09-09T05:21:18;100718.29;;;23.73;51.65
59873;BME280;50750;51.636;4.948;2022-09-09T05:23:45;100721.90;;;23.73;51.62
59873;BME280;50750;51.636;4.948;2022-09-09T05:26:15;100720.73;;;23.72;51.66
59873;BME280;50750;51.636;4.948;2022-09-09T05:28:43;100719.27;;;23.72;51.62
59873;BME280;50750;51.636;4.948;2022-09-09T05:31:10;100724.30;;;23.72;51.52
59873;BME280;50750;51.636;4.948;2022-09-09T05:33:41;100727.34;;;23.72;51.53
59873;BME280;50750;51.636;4.948;2022-09-09T05:36:14;100726.73;;;23.71;51.68
59873;BME280;50750;51.636;4.948;2022-09-09T05:38:42;100726.42;;;23.70;51.46
59873;BME280;50750;51.636;4.948;2022-09-09T05:41:10;100730.65;;;23.69;51.57
59873;BME280;50750;51.636;4.948;2022-09-09T05:43:38;100729.58;;;23.66;51.67
59873;BME280;50750;51.636;4.948;2022-09-09T05:46:09;100728.30;;;23.65;51.70
59873;BME280;50750;51.636;4.948;2022-09-09T05:48:38;100726.75;;;23.64;51.59
59873;BME280;50750;51.636;4.948;2022-09-09T05:51:09;100728.59;;;23.63;51.67
59873;BME280;50750;51.636;4.948;2022-09-09T05:53:38;100724.75;;;23.63;51.58
59873;BME280;50750;51.636;4.948;2022-09-09T05:56:28;100723.85;;;23.63;51.67
59873;BME280;50750;51.636;4.948;2022-09-09T05:58:54;100727.46;;;23.62;51.73
59873;BME280;50750;51.636;4.948;2022-09-09T06:01:26;100728.00;;;23.62;51.80
59873;BME280;50750;51.636;4.948;2022-09-09T06:03:53;100726.98;;;23.62;51.83
59873;BME280;50750;51.636;4.948;2022-09-09T06:06:22;100731.80;;;23.62;51.69
59873;BME280;50750;51.636;4.948;2022-09-09T06:08:52;100731.11;;;23.62;51.69
59873;BME280;50750;51.636;4.948;2022-09-09T06:11:21;100732.05;;;23.60;51.73
59873;BME280;50750;51.636;4.948;2022-09-09T06:13:49;100729.56;;;23.60;51.75
59873;BME280;50750;51.636;4.948;2022-09-09T06:16:22;100728.19;;;23.60;51.72
59873;BME280;50750;51.636;4.948;2022-09-09T06:18:50;100725.17;;;23.59;51.63
59873;BME280;50750;51.636;4.948;2022-09-09T06:21:18;100726.23;;;23.59;51.70
59873;BME280;50750;51.636;4.948;2022-09-09T06:23:45;100724.32;;;23.59;51.78
59873;BME280;50750;51.636;4.948;2022-09-09T06:26:16;100723.62;;;23.59;51.58
59873;BME280;50750;51.636;4.948;2022-09-09T06:28:46;100725.24;;;23.59;51.63
59873;BME280;50750;51.636;4.948;2022-09-09T06:31:16;100722.02;;;23.59;51.68
59873;BME280;50750;51.636;4.948;2022-09-09T06:33:50;100719.95;;;23.58;51.69
59873;BME280;50750;51.636;4.948;2022-09-09T06:36:19;100721.54;;;23.58;51.68
59873;BME280;50750;51.636;4.948;2022-09-09T06:38:47;100718.88;;;23.58;51.72
59873;BME280;50750;51.636;4.948;2022-09-09T06:41:17;100716.94;;;23.57;51.79
59873;BME280;50750;51.636;4.948;2022-09-09T06:43:45;100720.16;;;23.57;51.73
59873;BME280;50750;51.636;4.948;2022-09-09T06:46:18;100724.27;;;23.57;51.65
59873;BME280;50750;51.636;4.948;2022-09-09T06:48:45;100721.96;;;23.57;51.56
59873;BME280;50750;51.636;4.948;2022-09-09T06:51:20;100720.92;;;23.57;51.70
59873;BME280;50750;51.636;4.948;2022-09-09T06:53:50;100720.78;;;23.57;51.75
59873;BME280;50750;51.636;4.948;2022-09-09T06:58:47;100715.46;;;23.56;51.68
59873;BME280;50750;51.636;4.948;2022-09-09T07:01:17;100711.86;;;23.56;51.69
59873;BME280;50750;51.636;4.948;2022-09-09T07:03:48;100716.15;;;23.56;51.60
59873;BME280;50750;51.636;4.948;2022-09-09T07:06:18;100716.70;;;23.56;51.81
59873;BME280;50750;51.636;4.948;2022-09-09T07:08:49;100717.06;;;23.56;51.71
59873;BME280;50750;51.636;4.948;2022-09-09T07:11:17;100710.30;;;23.56;51.74
59873;BME280;50750;51.636;4.948;2022-09-09T07:13:44;100713.70;;;23.56;51.83
59873;BME280;50750;51.636;4.948;2022-09-09T07:16:14;100713.85;;;23.56;51.86
59873;BME280;50750;51.636;4.948;2022-09-09T07:18:41;100713.40;;;23.55;51.74
59873;BME280;50750;51.636;4.948;2022-09-09T07:21:10;100712.69;;;23.55;51.79
59873;BME280;50750;51.636;4.948;2022-09-09T07:23:38;100713.77;;;23.55;51.84
59873;BME280;50750;51.636;4.948;2022-09-09T07:26:12;100718.08;;;23.55;51.68
59873;BME280;50750;51.636;4.948;2022-09-09T07:28:40;100716.87;;;23.54;51.72
59873;BME280;50750;51.636;4.948;2022-09-09T07:31:13;100718.65;;;23.54;51.83
59873;BME280;50750;51.636;4.948;2022-09-09T07:33:42;100718.67;;;23.54;51.90
59873;BME280;50750;51.636;4.948;2022-09-09T07:36:21;100718.14;;;23.54;51.85
59873;BME280;50750;51.636;4.948;2022-09-09T07:38:53;100716.40;;;23.53;51.76
59873;BME280;50750;51.636;4.948;2022-09-09T07:44:25;100713.70;;;23.56;51.79
59873;BME280;50750;51.636;4.948;2022-09-09T07:46:53;100715.66;;;23.54;51.81
59873;BME280;50750;51.636;4.948;2022-09-09T07:49:19;100718.13;;;23.54;51.72
59873;BME280;50750;51.636;4.948;2022-09-09T07:51:47;100716.50;;;23.54;51.63
59873;BME280;50750;51.636;4.948;2022-09-09T07:54:17;100713.81;;;23.54;51.80
59873;BME280;50750;51.636;4.948;2022-09-09T07:56:47;100714.41;;;23.54;51.73
59873;BME280;50750;51.636;4.948;2022-09-09T07:59:13;100714.80;;;23.53;51.85
59873;BME280;50750;51.636;4.948;2022-09-09T08:01:43;100713.86;;;23.54;51.77
59873;BME280;50750;51.636;4.948;2022-09-09T08:04:13;100716.26;;;23.53;51.94
59873;BME280;50750;51.636;4.948;2022-09-09T08:06:50;100716.96;;;23.53;51.72
59873;BME280;50750;51.636;4.948;2022-09-09T08:09:19;100717.86;;;23.53;51.86
59873;BME280;50750;51.636;4.948;2022-09-09T08:11:46;100717.02;;;23.53;51.82
59873;BME280;50750;51.636;4.948;2022-09-09T08:14:13;100721.52;;;23.52;51.85
59873;BME280;50750;51.636;4.948;2022-09-09T08:16:43;100721.73;;;23.52;51.87
59873;BME280;50750;51.636;4.948;2022-09-09T08:19:10;100725.06;;;23.52;51.80
59873;BME280;50750;51.636;4.948;2022-09-09T08:21:39;100725.63;;;23.52;51.91
59873;BME280;50750;51.636;4.948;2022-09-09T08:24:07;100726.51;;;23.52;51.95
59873;BME280;50750;51.636;4.948;2022-09-09T08:26:40;100731.52;;;23.52;51.93
59873;BME280;50750;51.636;4.948;2022-09-09T08:29:11;100728.17;;;23.52;51.97
59873;BME280;50750;51.636;4.948;2022-09-09T08:31:45;100728.06;;;23.51;51.83
59873;BME280;50750;51.636;4.948;2022-09-09T08:34:14;100728.97;;;23.51;51.93
59873;BME280;50750;51.636;4.948;2022-09-09T08:36:43;100728.26;;;23.51;51.96
59873;BME280;50750;51.636;4.948;2022-09-09T08:39:12;100730.94;;;23.51;51.88
59873;BME280;50750;51.636;4.948;2022-09-09T08:47:50;100737.95;;;23.50;52.00
59873;BME280;50750;51.636;4.948;2022-09-09T08:50:28;100736.23;;;23.49;51.91
59873;BME280;50750;51.636;4.948;2022-09-09T08:58:19;100743.63;;;23.49;51.90
59873;BME280;50750;51.636;4.948;2022-09-09T09:11:50;100749.98;;;23.47;52.06
59873;BME280;50750;51.636;4.948;2022-09-09T09:14:22;100754.48;;;23.47;51.90
59873;BME280;50750;51.636;4.948;2022-09-09T09:17:00;100760.19;;;23.47;52.05
59873;BME280;50750;51.636;4.948;2022-09-09T09:19:28;100762.20;;;23.47;51.97
59873;BME280;50750;51.636;4.948;2022-09-09T09:22:01;100764.91;;;23.47;52.02
59873;BME280;50750;51.636;4.948;2022-09-09T09:24:45;100767.99;;;23.46;51.96
59873;BME280;50750;51.636;4.948;2022-09-09T09:27:21;100773.56;;;23.46;52.06
59873;BME280;50750;51.636;4.948;2022-09-09T09:29:54;100768.39;;;23.45;52.09
59873;BME280;50750;51.636;4.948;2022-09-09T09:32:24;100770.02;;;23.45;52.09
59873;BME280;50750;51.636;4.948;2022-09-09T09:34:56;100770.22;;;23.45;52.09
59873;BME280;50750;51.636;4.948;2022-09-09T09:37:32;100772.71;;;23.45;52.07
59873;BME280;50750;51.636;4.948;2022-09-09T09:40:13;100773.24;;;23.45;51.95
59873;BME280;50750;51.636;4.948;2022-09-09T09:42:58;100772.36;;;23.45;52.18
59873;BME280;50750;51.636;4.948;2022-09-09T09:45:33;100766.30;;;23.45;52.13
59873;BME280;50750;51.636;4.948;2022-09-09T09:48:05;100763.42;;;23.45;52.02
59873;BME280;50750;51.636;4.948;2022-09-09T09:50:33;100763.82;;;23.45;52.10
59873;BME280;50750;51.636;4.948;2022-09-09T09:53:03;100765.77;;;23.45;52.12
59873;BME280;50750;51.636;4.948;2022-09-09T09:55:33;100764.33;;;23.45;51.94
59873;BME280;50750;51.636;4.948;2022-09-09T09:58:05;100760.39;;;23.45;51.99
59873;BME280;50750;51.636;4.948;2022-09-09T10:00:33;100759.29;;;23.45;52.10
59873;BME280;50750;51.636;4.948;2022-09-09T10:03:19;100752.65;;;23.46;52.14
59873;BME280;50750;51.636;4.948;2022-09-09T10:05:47;100749.98;;;23.45;51.99
59873;BME280;50750;51.636;4.948;2022-09-09T10:08:16;100754.05;;;23.46;51.94
59873;BME280;50750;51.636;4.948;2022-09-09T10:19:33;100750.88;;;23.46;52.05
59873;BME280;50750;51.636;4.948;2022-09-09T10:24:54;100753.54;;;23.46;52.13
59873;BME280;50750;51.636;4.948;2022-09-09T10:27:50;100750.89;;;23.45;52.12
59873;BME280;50750;51.636;4.948;2022-09-09T10:30:24;100753.90;;;23.46;52.01
59873;BME280;50750;51.636;4.948;2022-09-09T10:33:10;100757.52;;;23.45;52.11
59873;BME280;50750;51.636;4.948;2022-09-09T10:38:42;100762.00;;;23.45;52.08
59873;BME280;50750;51.636;4.948;2022-09-09T10:52:33;100753.83;;;23.44;52.16
59873;BME280;50750;51.636;4.948;2022-09-09T10:55:26;100757.22;;;23.45;52.19
59873;BME280;50750;51.636;4.948;2022-09-09T10:57:58;100756.34;;;23.44;52.16
59873;BME280;50750;51.636;4.948;2022-09-09T11:00:48;100757.08;;;23.44;52.13
59873;BME280;50750;51.636;4.948;2022-09-09T11:03:37;100757.41;;;23.44;52.24
59873;BME280;50750;51.636;4.948;2022-09-09T11:06:12;100756.71;;;23.44;52.29
59873;BME280;50750;51.636;4.948;2022-09-09T11:08:41;100759.77;;;23.44;52.12
59873;BME280;50750;51.636;4.948;2022-09-09T11:11:32;100756.53;;;23.44;52.20
59873;BME280;50750;51.636;4.948;2022-09-09T11:14:33;100756.56;;;23.44;52.15
59873;BME280;50750;51.636;4.948;2022-09-09T11:17:09;100752.62;;;23.44;52.31
59873;BME280;50750;51.636;4.948;2022-09-09T11:19:41;100752.79;;;23.44;52.13
59873;BME280;50750;51.636;4.948;2022-09-09T11:22:28;100756.28;;;23.45;52.13
59873;BME280;50750;51.636;4.948;2022-09-09T11:25:51;100754.20;;;23.44;52.30
59873;BME280;50750;51.636;4.948;2022-09-09T11:33:51;100754.88;;;23.45;52.18
59873;BME280;50750;51.636;4.948;2022-09-09T11:38:52;100759.02;;;23.44;52.09
59873;BME280;50750;51.636;4.948;2022-09-09T11:41:20;100756.14;;;23.45;52.13
59873;BME280;50750;51.636;4.948;2022-09-09T11:43:49;100753.63;;;23.45;52.22
59873;BME280;50750;51.636;4.948;2022-09-09T11:46:22;100756.88;;;23.44;52.22
59873;BME280;50750;51.636;4.948;2022-09-09T11:49:05;100759.02;;;23.44;52.23
59873;BME280;50750;51.636;4.948;2022-09-09T11:51:33;100756.88;;;23.44;52.14
59873;BME280;50750;51.636;4.948;2022-09-09T11:54:02;100754.40;;;23.44;52.07
59873;BME280;50750;51.636;4.948;2022-09-09T11:56:45;100753.16;;;23.44;52.24
59873;BME280;50750;51.636;4.948;2022-09-09T11:59:26;100750.48;;;23.44;52.31
59873;BME280;50750;51.636;4.948;2022-09-09T12:12:36;100751.38;;;23.44;52.33
59873;BME280;50750;51.636;4.948;2022-09-09T12:17:50;100756.39;;;23.44;52.20
59873;BME280;50750;51.636;4.948;2022-09-09T12:20:37;100756.56;;;23.44;52.32
59873;BME280;50750;51.636;4.948;2022-09-09T12:25:59;100758.75;;;23.43;52.27
59873;BME280;50750;51.636;4.948;2022-09-09T12:31:54;100756.48;;;23.43;52.29
59873;BME280;50750;51.636;4.948;2022-09-09T12:40:19;100751.39;;;23.42;52.35
59873;BME280;50750;51.636;4.948;2022-09-09T12:42:46;100746.77;;;23.42;52.35
59873;BME280;50750;51.636;4.948;2022-09-09T12:45:21;100748.40;;;23.41;52.44
59873;BME280;50750;51.636;4.948;2022-09-09T12:50:29;100739.52;;;23.41;52.42
59873;BME280;50750;51.636;4.948;2022-09-09T12:53:02;100738.38;;;23.41;52.42
59873;BME280;50750;51.636;4.948;2022-09-09T12:55:32;100741.27;;;23.41;52.31
59873;BME280;50750;51.636;4.948;2022-09-09T12:58:01;100744.98;;;23.42;52.44
59873;BME280;50750;51.636;4.948;2022-09-09T13:00:31;100745.52;;;23.41;52.38
59873;BME280;50750;51.636;4.948;2022-09-09T13:03:00;100746.99;;;23.41;52.37
59873;BME280;50750;51.636;4.948;2022-09-09T13:05:37;100752.63;;;23.42;52.40
59873;BME280;50750;51.636;4.948;2022-09-09T13:08:08;100751.67;;;23.41;52.37
59873;BME280;50750;51.636;4.948;2022-09-09T13:10:57;100753.28;;;23.41;52.36
59873;BME280;50750;51.636;4.948;2022-09-09T13:13:35;100751.14;;;23.41;52.27
59873;BME280;50750;51.636;4.948;2022-09-09T13:16:04;100751.19;;;23.40;52.30
59873;BME280;50750;51.636;4.948;2022-09-09T13:18:40;100747.77;;;23.40;52.46
59873;BME280;50750;51.636;4.948;2022-09-09T13:21:07;100740.92;;;23.41;52.37
59873;BME280;50750;51.636;4.948;2022-09-09T13:23:35;100737.23;;;23.40;52.42
59873;BME280;50750;51.636;4.948;2022-09-09T13:26:18;100738.98;;;23.41;52.44
59873;BME280;50750;51.636;4.948;2022-09-09T13:28:48;100732.20;;;23.41;52.40
59873;BME280;50750;51.636;4.948;2022-09-09T13:33:48;100736.33;;;23.40;52.47
59873;BME280;50750;51.636;4.948;2022-09-09T13:36:14;100734.86;;;23.41;52.40
59873;BME280;50750;51.636;4.948;2022-09-09T13:38:55;100736.80;;;23.41;52.39
59873;BME280;50750;51.636;4.948;2022-09-09T13:41:24;100731.48;;;23.41;52.39
59873;BME280;50750;51.636;4.948;2022-09-09T13:43:52;100735.20;;;23.41;52.51
59873;BME280;50750;51.636;4.948;2022-09-09T13:46:40;100736.86;;;23.41;52.34
59873;BME280;50750;51.636;4.948;2022-09-09T13:51:45;100732.30;;;23.39;52.50
59873;BME280;50750;51.636;4.948;2022-09-09T13:54:14;100739.10;;;23.39;52.50
59873;BME280;50750;51.636;4.948;2022-09-09T13:56:43;100736.73;;;23.40;52.43
59873;BME280;50750;51.636;4.948;2022-09-09T13:59:14;100738.91;;;23.39;52.37
59873;BME280;50750;51.636;4.948;2022-09-09T14:01:41;100740.47;;;23.40;52.50
59873;BME280;50750;51.636;4.948;2022-09-09T14:04:08;100742.65;;;23.39;52.49
59873;BME280;50750;51.636;4.948;2022-09-09T14:06:36;100741.00;;;23.40;52.35
59873;BME280;50750;51.636;4.948;2022-09-09T14:09:06;100740.81;;;23.40;52.29
59873;BME280;50750;51.636;4.948;2022-09-09T14:11:33;100738.11;;;23.41;52.38
59873;BME280;50750;51.636;4.948;2022-09-09T14:13:59;100743.27;;;23.41;52.36
59873;BME280;50750;51.636;4.948;2022-09-09T14:16:27;100740.58;;;23.41;52.44
59873;BME280;50750;51.636;4.948;2022-09-09T14:18:54;100753.42;;;23.41;52.47
59873;BME280;50750;51.636;4.948;2022-09-09T14:21:25;100747.89;;;23.41;52.46
59873;BME280;50750;51.636;4.948;2022-09-09T14:23:52;100751.11;;;23.41;52.40
59873;BME280;50750;51.636;4.948;2022-09-09T14:26:20;100751.81;;;23.41;52.37
59873;BME280;50750;51.636;4.948;2022-09-09T14:28:47;100754.30;;;23.41;52.46
59873;BME280;50750;51.636;4.948;2022-09-09T14:31:14;100751.65;;;23.41;52.48
59873;BME280;50750;51.636;4.948;2022-09-09T14:33:41;100753.42;;;23.41;52.47
59873;BME280;50750;51.636;4.948;2022-09-09T14:36:08;100756.70;;;23.40;52.48
59873;BME280;50750;51.636;4.948;2022-09-09T14:38:37;100762.23;;;23.41;52.35
59873;BME280;50750;51.636;4.948;2022-09-09T14:41:12;100758.47;;;23.41;52.45
59873;BME280;50750;51.636;4.948;2022-09-09T14:43:40;100757.06;;;23.40;52.44
59873;BME280;50750;51.636;4.948;2022-09-09T14:46:08;100754.59;;;23.40;52.52
59873;BME280;50750;51.636;4.948;2022-09-09T14:48:35;100758.34;;;23.40;52.36
59873;BME280;50750;51.636;4.948;2022-09-09T14:51:44;100758.00;;;23.40;52.40
59873;BME280;50750;51.636;4.948;2022-09-09T14:54:03;100757.86;;;23.39;52.29
59873;BME280;50750;51.636;4.948;2022-09-09T14:56:32;100762.15;;;23.39;52.34
59873;BME280;50750;51.636;4.948;2022-09-09T14:59:02;100765.34;;;23.39;52.41
59873;BME280;50750;51.636;4.948;2022-09-09T15:01:30;100768.05;;;23.39;52.27
59873;BME280;50750;51.636;4.948;2022-09-09T15:03:59;100765.91;;;23.39;52.44
59873;BME280;50750;51.636;4.948;2022-09-09T15:06:29;100767.87;;;23.39;52.44
59873;BME280;50750;51.636;4.948;2022-09-09T15:08:57;100771.83;;;23.39;52.36
59873;BME280;50750;51.636;4.948;2022-09-09T15:11:28;100773.44;;;23.39;52.44
59873;BME280;50750;51.636;4.948;2022-09-09T15:13:56;100772.70;;;23.39;52.42
59873;BME280;50750;51.636;4.948;2022-09-09T15:16:25;100771.63;;;23.39;52.41
59873;BME280;50750;51.636;4.948;2022-09-09T15:18:55;100768.41;;;23.39;52.40
59873;BME280;50750;51.636;4.948;2022-09-09T15:21:24;100775.73;;;23.39;52.39
59873;BME280;50750;51.636;4.948;2022-09-09T15:23:51;100777.33;;;23.39;52.47
59873;BME280;50750;51.636;4.948;2022-09-09T15:26:19;100780.52;;;23.40;52.43
59873;BME280;50750;51.636;4.948;2022-09-09T15:28:47;100780.02;;;23.39;52.31
59873;BME280;50750;51.636;4.948;2022-09-09T15:31:20;100778.73;;;23.39;52.40